Time;durP1;ratioP1;P1;durP2;ratioP2;P2;SDS_P1;SDS_P2;PMS_P1;PMS_P2;Temp;Humidity;BMP_temperature;BMP_pressure;BME280_temperature;BME280_humidity;BME280_pressure;Samples;Min_cycle;Max_cycle;Signal;HPM_P1;HPM_P2
2023/11/21 00:00:41;;;;;;;12.50;12.10;;;9.80;99.90;;;;;;5000609;28;20489;-78
2023/11/21 00:03:11;;;;;;;12.63;12.33;;;9.80;99.90;;;;;;4999014;28;20964;-78
2023/11/21 00:05:41;;;;;;;12.70;12.23;;;9.80;99.90;;;;;;4997268;28;20485;-77
2023/11/21 00:08:10;;;;;;;12.20;11.90;;;9.80;1.00;;;;;;4998526;28;20528;-76
2023/11/21 00:10:39;;;;;;;13.33;12.40;;;9.90;99.90;;;;;;4997469;28;20545;-77
2023/11/21 00:13:07;;;;;;;13.00;12.40;;;9.80;99.90;;;;;;5000801;28;24701;-77
2023/11/21 00:15:37;;;;;;;13.23;12.43;;;9.80;36.20;;;;;;4998843;28;20489;-77
2023/11/21 00:18:05;;;;;;;13.40;12.70;;;9.80;99.90;;;;;;4995989;28;20461;-77
2023/11/21 00:20:33;;;;;;;12.87;12.33;;;9.80;1.00;;;;;;4998827;28;20524;-77
2023/11/21 00:23:02;;;;;;;14.23;13.10;;;9.80;1.00;;;;;;4997727;28;20481;-77
2023/11/21 00:25:31;;;;;;;13.53;12.90;;;9.80;1.00;;;;;;4998048;28;20453;-77
2023/11/21 00:28:01;;;;;;;13.93;13.07;;;9.80;1.00;;;;;;4996729;28;20460;-77
2023/11/21 00:30:30;;;;;;;13.77;13.00;;;9.80;1.00;;;;;;5000034;28;20589;-78
2023/11/21 00:33:00;;;;;;;13.23;12.67;;;9.80;1.00;;;;;;5000469;28;20536;-77
2023/11/21 00:35:28;;;;;;;14.13;13.32;;;9.80;44.20;;;;;;4995397;28;20542;-78
2023/11/21 00:37:57;;;;;;;13.80;13.00;;;9.60;99.90;;;;;;4992573;28;20282;-79
2023/11/21 00:40:25;;;;;;;13.87;13.00;;;9.80;1.00;;;;;;4998950;28;20482;-79
2023/11/21 00:42:53;;;;;;;13.33;12.60;;;9.80;99.90;;;;;;4994758;28;21049;-78
2023/11/21 00:45:21;;;;;;;13.07;12.40;;;9.80;99.90;;;;;;4997734;28;20473;-78
2023/11/21 00:47:49;;;;;;;13.27;12.63;;;9.80;99.90;;;;;;4995311;28;20987;-78
2023/11/21 00:50:19;;;;;;;13.00;12.50;;;9.80;18.30;;;;;;4998912;28;20532;-78
2023/11/21 00:52:47;;;;;;;12.67;12.10;;;9.70;26.10;;;;;;4997188;28;20463;-79
2023/11/21 00:55:17;;;;;;;13.17;12.67;;;9.70;1.00;;;;;;4995735;28;20839;-79
2023/11/21 00:57:46;;;;;;;12.70;12.33;;;9.70;1.00;;;;;;4997076;28;20922;-80
2023/11/21 01:00:17;;;;;;;13.10;12.70;;;9.60;99.90;;;;;;4988088;28;20556;-78
2023/11/21 01:02:44;;;;;;;13.17;12.40;;;9.70;99.90;;;;;;4995563;28;20889;-79
2023/11/21 01:05:12;;;;;;;13.53;13.10;;;9.70;99.90;;;;;;4994632;28;20456;-78
2023/11/21 01:07:42;;;;;;;12.93;12.53;;;9.70;99.90;;;;;;4996477;28;20551;-78
2023/11/21 01:10:10;;;;;;;12.40;12.00;;;9.70;99.90;;;;;;4990953;28;21256;-77
2023/11/21 01:12:39;;;;;;;12.97;12.50;;;9.60;99.90;;;;;;4996535;28;20482;-78
2023/11/21 01:15:08;;;;;;;12.03;11.70;;;9.60;99.90;;;;;;4994620;28;20500;-78
2023/11/21 01:17:37;;;;;;;13.67;13.07;;;9.60;1.00;;;;;;4997659;28;20453;-78
2023/11/21 01:20:11;;;;;;;11.83;11.53;;;9.60;99.90;;;;;;4996775;28;20555;-77
2023/11/21 01:22:42;;;;;;;12.47;12.07;;;9.60;99.90;;;;;;5000820;28;20470;-77
2023/11/21 01:25:11;;;;;;;12.63;12.13;;;9.70;99.90;;;;;;4996974;28;20462;-76
2023/11/21 01:27:39;;;;;;;12.93;12.10;;;9.70;1.00;;;;;;4995150;28;20459;-77
2023/11/21 01:30:10;;;;;;;12.07;11.67;;;9.70;1.00;;;;;;5000282;28;20468;-77
2023/11/21 01:32:39;;;;;;;12.77;11.80;;;9.70;1.00;;;;;;4997539;28;20955;-77
2023/11/21 01:35:09;;;;;;;12.83;12.40;;;9.80;1.00;;;;;;4997479;28;20465;-77
2023/11/21 01:37:37;;;;;;;12.20;11.90;;;9.80;99.90;;;;;;4998002;28;20449;-76
2023/11/21 01:40:13;;;;;;;13.17;12.60;;;9.80;99.90;;;;;;4995635;28;21062;-77
2023/11/21 01:42:43;;;;;;;12.70;12.20;;;9.70;99.90;;;;;;4999175;28;21048;-77
2023/11/21 01:45:12;;;;;;;12.17;11.77;;;9.70;1.00;;;;;;4996673;28;20489;-78
2023/11/21 01:47:43;;;;;;;12.10;11.70;;;9.70;99.90;;;;;;4994975;28;21283;-79
2023/11/21 01:50:15;;;;;;;11.37;11.07;;;9.70;1.00;;;;;;4995561;28;20565;-77
2023/11/21 01:52:45;;;;;;;11.23;10.90;;;9.70;45.90;;;;;;4998902;28;20466;-77
2023/11/21 01:55:18;;;;;;;11.73;11.33;;;9.80;1.00;;;;;;4998345;28;20539;-79
2023/11/21 01:57:56;;;;;;;11.53;11.13;;;9.70;99.90;;;;;;4999362;28;20475;-77
2023/11/21 02:00:25;;;;;;;11.67;11.20;;;9.60;99.90;;;;;;5000472;28;20488;-77
2023/11/21 02:02:54;;;;;;;11.40;11.10;;;9.60;1.00;;;;;;4995591;28;20473;-78
2023/11/21 02:05:22;;;;;;;11.90;11.50;;;9.60;1.00;;;;;;4993323;28;20459;-79
2023/11/21 02:07:52;;;;;;;11.77;11.47;;;9.70;99.90;;;;;;4994935;28;20843;-79
2023/11/21 02:10:22;;;;;;;11.60;11.40;;;9.60;53.70;;;;;;4993111;28;20470;-78
2023/11/21 02:12:52;;;;;;;11.57;11.30;;;9.70;99.90;;;;;;4994808;28;20462;-78
2023/11/21 02:15:20;;;;;;;11.80;11.50;;;9.60;1.00;;;;;;4994970;28;20462;-77
2023/11/21 02:17:51;;;;;;;12.00;11.50;;;9.60;99.90;;;;;;4995354;28;20467;-80
2023/11/21 02:20:22;;;;;;;11.23;10.93;;;9.70;1.00;;;;;;4994711;28;20556;-78
2023/11/21 02:22:55;;;;;;;12.00;11.20;;;9.60;1.00;;;;;;5010779;28;20470;-79
2023/11/21 02:25:24;;;;;;;10.73;10.43;;;9.70;1.00;;;;;;4992903;28;20462;-78
2023/11/21 02:27:54;;;;;;;11.33;11.10;;;9.70;99.90;;;;;;4996319;28;20451;-78
2023/11/21 02:30:22;;;;;;;12.30;11.90;;;9.60;1.00;;;;;;4995759;28;21169;-76
2023/11/21 02:32:53;;;;;;;11.10;10.90;;;9.60;31.10;;;;;;4995344;28;20445;-76
2023/11/21 02:35:21;;;;;;;11.20;11.00;;;9.60;99.90;;;;;;4999344;28;20512;-76
2023/11/21 02:37:51;;;;;;;11.63;11.23;;;9.60;99.90;;;;;;4998026;28;20541;-77
2023/11/21 02:40:21;;;;;;;11.47;11.10;;;9.70;1.00;;;;;;4997746;28;21046;-78
2023/11/21 02:42:50;;;;;;;11.80;11.50;;;9.70;1.00;;;;;;4994484;28;20502;-77
2023/11/21 02:45:20;;;;;;;11.10;10.90;;;9.60;99.90;;;;;;4996450;28;20470;-77
2023/11/21 02:47:49;;;;;;;11.27;10.97;;;9.60;1.00;;;;;;4995489;28;20533;-77
2023/11/21 02:50:20;;;;;;;11.30;11.03;;;9.60;99.90;;;;;;4992697;28;20485;-75
2023/11/21 02:52:48;;;;;;;10.87;10.67;;;9.70;1.00;;;;;;4996551;28;20446;-77
2023/11/21 02:55:18;;;;;;;11.37;11.17;;;9.60;99.90;;;;;;4995075;28;21093;-76
2023/11/21 02:57:46;;;;;;;11.43;10.93;;;9.60;99.90;;;;;;4993453;28;20466;-75
2023/11/21 03:00:15;;;;;;;11.00;10.80;;;9.60;99.90;;;;;;4994834;28;20477;-77
2023/11/21 03:02:43;;;;;;;11.00;10.80;;;9.60;92.40;;;;;;4993838;28;20510;-77
2023/11/21 03:05:12;;;;;;;11.47;11.17;;;9.60;99.90;;;;;;4990778;28;20509;-76
2023/11/21 03:07:40;;;;;;;11.27;10.90;;;9.60;99.90;;;;;;4992374;28;20457;-78
2023/11/21 03:10:10;;;;;;;11.60;11.30;;;9.50;1.00;;;;;;4995080;28;20514;-76
2023/11/21 03:12:41;;;;;;;11.20;11.00;;;9.50;1.00;;;;;;4994563;28;20461;-76
2023/11/21 03:15:10;;;;;;;11.50;11.20;;;9.50;99.90;;;;;;4996664;28;20462;-77
2023/11/21 03:17:38;;;;;;;11.63;11.23;;;9.50;99.90;;;;;;4993591;28;20504;-76
2023/11/21 03:20:10;;;;;;;10.83;10.50;;;9.50;99.90;;;;;;4992013;28;20470;-75
2023/11/21 03:22:39;;;;;;;11.50;11.10;;;9.50;1.00;;;;;;4988752;28;21092;-77
2023/11/21 03:25:10;;;;;;;11.30;10.90;;;9.40;1.00;;;;;;4996248;28;20960;-76
2023/11/21 03:27:40;;;;;;;11.20;10.90;;;9.40;1.00;;;;;;4997530;28;20458;-76
2023/11/21 03:30:10;;;;;;;10.90;10.60;;;9.40;99.90;;;;;;4995350;28;20485;-77
2023/11/21 03:32:39;;;;;;;10.50;10.30;;;9.50;99.90;;;;;;4995313;28;20828;-77
2023/11/21 03:35:09;;;;;;;11.30;11.00;;;9.50;99.90;;;;;;4995128;28;20482;-76
2023/11/21 03:37:41;;;;;;;11.50;10.90;;;9.50;99.90;;;;;;4996021;28;20968;-75
2023/11/21 03:40:10;;;;;;;11.80;11.40;;;9.50;99.90;;;;;;4995212;28;22592;-76
2023/11/21 03:42:39;;;;;;;11.30;11.10;;;9.40;99.90;;;;;;5000401;28;20457;-76
2023/11/21 03:45:09;;;;;;;11.53;11.10;;;9.40;76.30;;;;;;4996083;28;20458;-76
2023/11/21 03:47:37;;;;;;;11.17;10.87;;;9.50;1.00;;;;;;4997201;28;20466;-76
2023/11/21 03:50:08;;;;;;;10.80;10.60;;;9.50;99.90;;;;;;4994639;28;20465;-77
2023/11/21 03:52:37;;;;;;;10.67;10.47;;;9.50;99.90;;;;;;4997426;28;20473;-76
2023/11/21 03:55:05;;;;;;;11.13;10.50;;;9.50;1.00;;;;;;4996097;28;20474;-78
2023/11/21 03:57:33;;;;;;;11.13;10.73;;;9.50;1.00;;;;;;4993461;28;20818;-77
2023/11/21 04:00:04;;;;;;;12.27;11.77;;;9.50;99.90;;;;;;4994003;28;20501;-77
2023/11/21 04:02:33;;;;;;;11.77;11.27;;;9.50;99.90;;;;;;4993918;28;20463;-77
2023/11/21 04:05:01;;;;;;;11.30;11.10;;;9.50;99.90;;;;;;4995920;28;20478;-77
2023/11/21 04:07:29;;;;;;;11.70;11.40;;;9.50;74.00;;;;;;4992502;28;20983;-78
2023/11/21 04:09:57;;;;;;;11.37;11.17;;;9.50;99.90;;;;;;4996131;28;20910;-77
2023/11/21 04:12:25;;;;;;;11.20;11.00;;;9.50;90.00;;;;;;4995072;28;21002;-77
2023/11/21 04:14:53;;;;;;;11.20;11.00;;;9.40;1.00;;;;;;4991937;28;20489;-78
2023/11/21 04:17:24;;;;;;;11.20;11.00;;;9.50;1.00;;;;;;4994706;28;20468;-76
2023/11/21 04:19:52;;;;;;;11.50;11.20;;;9.40;1.00;;;;;;4995296;28;20981;-77
2023/11/21 04:22:20;;;;;;;11.60;11.30;;;9.40;29.60;;;;;;4994539;28;20550;-77
2023/11/21 04:24:49;;;;;;;11.37;11.17;;;9.50;99.90;;;;;;4992598;28;20834;-76
2023/11/21 04:27:17;;;;;;;11.70;11.40;;;9.40;99.90;;;;;;4995420;28;20442;-75
2023/11/21 04:29:46;;;;;;;11.67;11.47;;;9.50;1.00;;;;;;4992221;28;21214;-77
2023/11/21 04:32:14;;;;;;;12.33;12.03;;;9.50;39.70;;;;;;4995356;28;21372;-74
2023/11/21 04:34:43;;;;;;;12.00;11.80;;;9.50;99.90;;;;;;4992630;28;20442;-76
2023/11/21 04:37:11;;;;;;;12.00;11.70;;;9.40;1.00;;;;;;4999943;28;20469;-76
2023/11/21 04:39:39;;;;;;;12.07;11.60;;;9.50;40.80;;;;;;4997665;28;20464;-76
2023/11/21 04:42:08;;;;;;;12.00;11.80;;;9.50;1.00;;;;;;4996057;28;20456;-77
2023/11/21 04:44:36;;;;;;;12.07;11.77;;;9.50;99.90;;;;;;5000594;28;21490;-77
2023/11/21 04:47:04;;;;;;;11.73;11.53;;;9.50;99.90;;;;;;4994672;28;20466;-75
2023/11/21 04:49:32;;;;;;;12.30;11.83;;;9.50;1.00;;;;;;4995292;28;20465;-78
2023/11/21 04:52:03;;;;;;;12.37;11.87;;;9.50;1.00;;;;;;4997841;28;20956;-78
2023/11/21 04:54:32;;;;;;;12.10;11.80;;;9.50;1.00;;;;;;5000840;28;20449;-75
2023/11/21 04:57:00;;;;;;;12.07;11.83;;;9.50;94.30;;;;;;4998880;28;20458;-76
2023/11/21 04:59:28;;;;;;;12.40;12.10;;;9.50;1.00;;;;;;4996811;28;20527;-76
2023/11/21 05:01:56;;;;;;;12.20;12.00;;;9.50;99.90;;;;;;4991370;28;20500;-78
2023/11/21 05:04:25;;;;;;;12.00;11.80;;;9.50;1.00;;;;;;4996263;28;20513;-77
2023/11/21 05:06:53;;;;;;;12.10;11.90;;;9.50;99.90;;;;;;4996117;28;20559;-78
2023/11/21 05:09:22;;;;;;;12.30;12.00;;;9.40;99.90;;;;;;4999631;28;20455;-78
2023/11/21 05:11:50;;;;;;;12.33;11.90;;;9.40;1.00;;;;;;4997745;28;21005;-75
2023/11/21 05:14:19;;;;;;;12.50;12.20;;;9.40;99.90;;;;;;4999475;28;20458;-77
2023/11/21 05:16:48;;;;;;;12.20;11.90;;;9.40;99.90;;;;;;4999688;28;20455;-76
2023/11/21 05:19:16;;;;;;;12.27;11.97;;;9.40;1.00;;;;;;4993488;28;20469;-75
2023/11/21 05:21:45;;;;;;;12.13;11.87;;;9.50;1.00;;;;;;4994728;28;20481;-77
2023/11/21 05:24:13;;;;;;;12.70;12.23;;;9.50;1.00;;;;;;4992819;28;20586;-75
2023/11/21 05:26:42;;;;;;;12.50;12.07;;;9.50;99.90;;;;;;4997564;28;20447;-75
2023/11/21 05:29:10;;;;;;;12.50;12.10;;;9.40;1.00;;;;;;4996685;28;20447;-76
2023/11/21 05:31:39;;;;;;;12.30;12.00;;;9.30;1.00;;;;;;4993558;28;20465;-77
2023/11/21 05:34:07;;;;;;;12.87;12.10;;;9.30;1.00;;;;;;4997322;28;20550;-77
2023/11/21 05:36:35;;;;;;;12.27;11.87;;;9.30;99.90;;;;;;4999452;28;20450;-77
2023/11/21 05:39:04;;;;;;;12.23;11.93;;;9.40;88.60;;;;;;4999017;28;20463;-76
2023/11/21 05:41:32;;;;;;;12.10;11.80;;;9.30;1.00;;;;;;4996613;28;20482;-76
2023/11/21 05:44:02;;;;;;;11.90;11.60;;;9.30;1.00;;;;;;4996805;28;20488;-77
2023/11/21 05:46:30;;;;;;;12.40;12.00;;;9.40;14.10;;;;;;4998504;28;20624;-77
2023/11/21 05:48:58;;;;;;;12.00;11.80;;;9.30;1.00;;;;;;4995067;28;20459;-77
2023/11/21 05:51:26;;;;;;;12.93;12.57;;;9.30;1.00;;;;;;4995298;28;20471;-76
2023/11/21 05:53:54;;;;;;;12.10;11.90;;;9.30;1.00;;;;;;4995928;28;20788;-78
2023/11/21 05:56:22;;;;;;;12.27;11.97;;;9.30;99.90;;;;;;4996005;28;20824;-77
2023/11/21 05:58:51;;;;;;;13.00;12.60;;;9.30;1.00;;;;;;4996801;28;20454;-78
2023/11/21 06:01:20;;;;;;;12.60;12.30;;;9.30;42.70;;;;;;4996177;28;20481;-76
2023/11/21 06:03:49;;;;;;;13.10;12.60;;;9.30;1.00;;;;;;4997674;28;21071;-77
2023/11/21 06:06:19;;;;;;;12.70;12.40;;;9.20;99.90;;;;;;4995634;28;20451;-76
2023/11/21 06:08:47;;;;;;;12.67;12.37;;;9.20;99.90;;;;;;4995573;28;20472;-76
2023/11/21 06:11:16;;;;;;;12.70;12.47;;;9.30;99.90;;;;;;4996166;28;20576;-76
2023/11/21 06:13:45;;;;;;;13.00;12.60;;;9.30;1.00;;;;;;4995277;28;20450;-75
2023/11/21 06:16:18;;;;;;;12.43;12.13;;;9.40;1.00;;;;;;4998601;28;20469;-80
2023/11/21 06:18:48;;;;;;;12.80;12.40;;;9.30;1.00;;;;;;4996042;28;20457;-76
2023/11/21 06:21:18;;;;;;;12.80;12.50;;;9.40;99.90;;;;;;4995378;28;20489;-77
2023/11/21 06:23:46;;;;;;;12.87;12.57;;;9.40;99.90;;;;;;4995541;28;20465;-77
2023/11/21 06:26:18;;;;;;;13.23;12.93;;;9.40;1.00;;;;;;4996496;28;20478;-78
2023/11/21 06:28:46;;;;;;;11.90;11.70;;;9.40;99.90;;;;;;4997475;28;20450;-76
2023/11/21 06:31:14;;;;;;;12.57;12.27;;;9.40;99.90;;;;;;4995900;28;21007;-77
2023/11/21 06:33:43;;;;;;;12.40;12.00;;;9.30;51.10;;;;;;4995902;28;20458;-76
2023/11/21 06:36:12;;;;;;;12.40;12.10;;;9.30;1.00;;;;;;4994436;28;20461;-75
2023/11/21 06:38:40;;;;;;;13.10;12.80;;;9.30;13.90;;;;;;4996045;28;20974;-78
2023/11/21 06:41:09;;;;;;;12.80;12.50;;;9.30;85.90;;;;;;4995238;28;20467;-76
2023/11/21 06:43:37;;;;;;;13.07;12.77;;;9.30;1.00;;;;;;4991722;28;20503;-76
2023/11/21 06:46:06;;;;;;;12.97;12.67;;;9.40;99.90;;;;;;4991705;28;20482;-77
2023/11/21 06:48:34;;;;;;;13.23;12.80;;;9.40;99.90;;;;;;4995390;28;20489;-79
2023/11/21 06:51:02;;;;;;;14.10;13.70;;;9.40;91.30;;;;;;4996453;28;20541;-77
2023/11/21 06:53:32;;;;;;;13.30;13.00;;;9.40;99.90;;;;;;4992592;28;20455;-77
2023/11/21 06:56:03;;;;;;;13.67;13.37;;;9.40;41.60;;;;;;4993746;28;20504;-77
2023/11/21 06:58:31;;;;;;;13.50;13.10;;;9.40;99.90;;;;;;4996713;28;20820;-78
2023/11/21 07:00:59;;;;;;;13.90;13.50;;;9.40;1.00;;;;;;4994322;28;20510;-78
2023/11/21 07:03:27;;;;;;;13.27;12.97;;;9.30;1.00;;;;;;4993697;28;20462;-77
2023/11/21 07:05:56;;;;;;;13.70;13.30;;;9.40;99.90;;;;;;4995117;28;20487;-77
2023/11/21 07:08:24;;;;;;;13.77;13.30;;;9.40;1.00;;;;;;4996013;28;20469;-77
2023/11/21 07:10:53;;;;;;;13.60;13.30;;;9.40;99.90;;;;;;4995338;28;21106;-76
2023/11/21 07:13:21;;;;;;;12.77;12.47;;;9.40;99.90;;;;;;4998233;28;20524;-76
2023/11/21 07:15:50;;;;;;;12.70;12.40;;;9.40;99.90;;;;;;4998497;28;20470;-77
2023/11/21 07:18:18;;;;;;;13.00;12.70;;;9.40;1.00;;;;;;4997495;28;20449;-76
2023/11/21 07:20:46;;;;;;;13.20;12.70;;;9.40;99.90;;;;;;4993167;28;20702;-77
2023/11/21 07:23:15;;;;;;;13.87;13.47;;;9.40;99.90;;;;;;4997676;28;20464;-76
2023/11/21 07:25:43;;;;;;;15.30;14.60;;;9.40;1.00;;;;;;4996501;28;20466;-75
2023/11/21 07:28:13;;;;;;;13.73;13.23;;;9.40;99.90;;;;;;4995434;28;20469;-78
2023/11/21 07:30:41;;;;;;;13.70;13.10;;;9.40;1.00;;;;;;4998912;28;20485;-79
2023/11/21 07:33:09;;;;;;;13.33;12.80;;;9.40;99.90;;;;;;4997168;28;20450;-78
2023/11/21 07:35:38;;;;;;;13.20;12.70;;;9.50;84.60;;;;;;4994981;28;20513;-76
2023/11/21 07:38:06;;;;;;;29.37;26.83;;;9.50;1.00;;;;;;4995438;28;20463;-76
2023/11/21 07:40:34;;;;;;;13.50;13.00;;;9.50;1.00;;;;;;4995778;28;21011;-76
2023/11/21 07:43:02;;;;;;;13.53;13.13;;;9.40;99.90;;;;;;4995851;28;20966;-78
2023/11/21 07:45:32;;;;;;;28.87;26.30;;;9.50;1.00;;;;;;4998270;28;20458;-77
2023/11/21 07:48:03;;;;;;;16.53;15.37;;;9.50;99.90;;;;;;4996212;28;21195;-78
2023/11/21 07:50:32;;;;;;;12.40;12.10;;;9.40;29.00;;;;;;4997725;28;20481;-76
2023/11/21 07:53:00;;;;;;;13.43;12.80;;;9.50;61.60;;;;;;4995253;28;20522;-76
2023/11/21 07:55:32;;;;;;;13.17;12.67;;;9.50;99.90;;;;;;4989210;28;20466;-76
2023/11/21 07:58:00;;;;;;;12.97;12.47;;;9.50;99.90;;;;;;4994650;28;20842;-77
2023/11/21 08:00:30;;;;;;;12.67;12.27;;;9.40;2.50;;;;;;4997014;28;20467;-79
2023/11/21 08:02:59;;;;;;;12.93;12.53;;;9.40;55.40;;;;;;4994789;28;20549;-78
2023/11/21 08:05:29;;;;;;;12.37;12.10;;;9.40;99.90;;;;;;4996373;28;20493;-79
2023/11/21 08:08:04;;;;;;;12.30;12.00;;;9.40;1.00;;;;;;4998081;28;20469;-77
2023/11/21 08:10:33;;;;;;;12.60;12.10;;;9.40;1.00;;;;;;5001001;28;20564;-77
2023/11/21 08:13:01;;;;;;;13.20;12.67;;;9.30;99.90;;;;;;4997771;28;20490;-77
2023/11/21 08:15:29;;;;;;;12.00;11.80;;;9.40;1.00;;;;;;4999840;28;20454;-76
2023/11/21 08:17:59;;;;;;;12.73;12.40;;;9.50;99.90;;;;;;5000642;28;20512;-77
2023/11/21 08:20:28;;;;;;;13.17;12.77;;;9.50;99.90;;;;;;4997883;28;20477;-77
2023/11/21 08:22:56;;;;;;;12.10;11.60;;;9.50;1.00;;;;;;4998913;28;20455;-76
2023/11/21 08:25:25;;;;;;;12.73;12.30;;;9.60;1.00;;;;;;4999651;28;20474;-78
2023/11/21 08:27:54;;;;;;;12.47;12.17;;;9.70;91.80;;;;;;4999730;28;20975;-77
2023/11/21 08:30:23;;;;;;;13.40;12.60;;;9.70;1.00;;;;;;4995398;28;21030;-77
2023/11/21 08:32:53;;;;;;;13.27;12.67;;;9.80;99.90;;;;;;4998874;28;20442;-76
2023/11/21 08:35:23;;;;;;;12.57;12.27;;;9.90;99.90;;;;;;4997058;28;20532;-76
2023/11/21 08:37:52;;;;;;;12.10;11.80;;;9.90;94.80;;;;;;4997129;28;20469;-77
2023/11/21 08:40:21;;;;;;;12.50;12.20;;;9.90;99.90;;;;;;4999134;28;20493;-77
2023/11/21 08:42:51;;;;;;;12.33;11.83;;;9.90;99.90;;;;;;5000857;28;20533;-78
2023/11/21 08:45:20;;;;;;;12.87;12.57;;;10.00;99.90;;;;;;4996542;28;21029;-78
2023/11/21 08:47:50;;;;;;;12.13;11.90;;;10.00;99.90;;;;;;4997241;28;20445;-76
2023/11/21 08:50:19;;;;;;;13.90;13.40;;;10.00;99.90;;;;;;4998728;28;20479;-77
2023/11/21 08:52:49;;;;;;;13.13;12.73;;;10.00;30.20;;;;;;4996407;28;20994;-76
2023/11/21 08:55:19;;;;;;;12.47;12.17;;;10.10;99.90;;;;;;4998885;28;20559;-76
2023/11/21 08:57:47;;;;;;;12.67;12.37;;;10.10;99.90;;;;;;4993453;28;20983;-79
2023/11/21 09:00:16;;;;;;;12.30;12.00;;;10.00;1.00;;;;;;4995448;28;20478;-78
2023/11/21 09:02:46;;;;;;;12.50;12.20;;;10.00;99.90;;;;;;4998230;28;20468;-76
2023/11/21 09:05:15;;;;;;;12.87;12.47;;;10.00;99.90;;;;;;4996647;28;20461;-76
2023/11/21 09:07:45;;;;;;;13.00;12.70;;;10.10;99.90;;;;;;4995934;28;20565;-77
2023/11/21 09:10:15;;;;;;;12.77;12.47;;;10.00;99.90;;;;;;4998404;28;20475;-77
2023/11/21 09:12:44;;;;;;;12.50;12.10;;;10.10;99.90;;;;;;4998015;28;20458;-78
2023/11/21 09:15:12;;;;;;;13.03;12.73;;;10.10;1.00;;;;;;4997811;28;21223;-78
2023/11/21 09:17:41;;;;;;;13.60;13.10;;;10.10;96.80;;;;;;4998711;28;20985;-78
2023/11/21 09:20:11;;;;;;;13.33;13.03;;;10.10;99.90;;;;;;4998340;28;20482;-77
2023/11/21 09:22:39;;;;;;;14.00;13.70;;;10.10;1.00;;;;;;5000169;28;20577;-77
2023/11/21 09:25:08;;;;;;;12.87;12.53;;;10.10;1.00;;;;;;4997055;28;20539;-77
2023/11/21 09:27:38;;;;;;;12.80;12.40;;;10.10;99.90;;;;;;4998639;28;20497;-78
2023/11/21 09:30:09;;;;;;;12.83;12.53;;;10.20;99.90;;;;;;4995571;28;20486;-77
2023/11/21 09:32:40;;;;;;;13.80;13.20;;;10.20;1.00;;;;;;4999524;28;20451;-78
2023/11/21 09:35:09;;;;;;;14.03;13.70;;;10.20;99.90;;;;;;4996622;28;20517;-76
2023/11/21 09:37:38;;;;;;;12.93;12.63;;;10.20;18.10;;;;;;4996615;28;20534;-77
2023/11/21 09:40:13;;;;;;;13.03;12.73;;;10.30;1.00;;;;;;4997354;28;20534;-77
2023/11/21 09:42:50;;;;;;;13.10;12.80;;;10.30;99.90;;;;;;4998769;28;21158;-77
2023/11/21 09:45:25;;;;;;;13.10;12.70;;;10.30;1.00;;;;;;4995743;28;20454;-76
2023/11/21 09:47:55;;;;;;;13.00;12.70;;;10.30;99.90;;;;;;4998952;28;20480;-77
2023/11/21 09:50:24;;;;;;;13.00;12.60;;;10.40;1.00;;;;;;4996870;28;20528;-77
2023/11/21 09:53:00;;;;;;;13.43;13.03;;;10.30;20.40;;;;;;4998840;28;20963;-78
2023/11/21 09:55:30;;;;;;;13.13;12.83;;;10.40;99.90;;;;;;4998060;28;21089;-77
2023/11/21 09:58:00;;;;;;;13.33;13.03;;;10.30;99.90;;;;;;4997168;28;20454;-77
2023/11/21 10:00:32;;;;;;;12.90;12.50;;;10.30;99.90;;;;;;4993710;28;20562;-78
2023/11/21 10:03:02;;;;;;;12.37;12.17;;;10.20;1.00;;;;;;4997203;28;20469;-76
2023/11/21 10:05:34;;;;;;;12.97;12.70;;;10.20;99.90;;;;;;4998949;28;20832;-78
2023/11/21 10:08:02;;;;;;;13.53;13.23;;;10.20;99.90;;;;;;4999536;28;20574;-77
2023/11/21 10:10:34;;;;;;;14.40;13.90;;;10.10;99.90;;;;;;4997991;28;20485;-77
2023/11/21 10:13:07;;;;;;;13.43;13.13;;;10.10;1.00;;;;;;4992715;28;20916;-75
2023/11/21 10:15:36;;;;;;;14.37;13.77;;;10.10;12.20;;;;;;4991550;28;20863;-79
2023/11/21 10:18:06;;;;;;;13.80;13.50;;;10.10;1.00;;;;;;4990670;28;21018;-78
2023/11/21 10:20:37;;;;;;;12.67;12.37;;;10.10;99.90;;;;;;4991398;28;20477;-81
2023/11/21 10:23:07;;;;;;;13.27;12.97;;;10.20;58.90;;;;;;4993634;28;20482;-77
2023/11/21 10:25:36;;;;;;;13.30;13.00;;;10.10;99.90;;;;;;4998338;28;20457;-79
2023/11/21 10:28:06;;;;;;;15.03;14.47;;;10.10;1.00;;;;;;4995371;28;20475;-77
2023/11/21 10:30:36;;;;;;;12.80;12.40;;;10.20;96.10;;;;;;4995267;28;20493;-78
2023/11/21 10:33:06;;;;;;;12.97;12.63;;;10.20;99.90;;;;;;4997376;28;20821;-78
2023/11/21 10:35:46;;;;;;;12.47;12.20;;;10.20;50.70;;;;;;5001682;28;20458;-77
2023/11/21 10:38:15;;;;;;;13.10;12.70;;;10.20;99.90;;;;;;4997937;28;20449;-79
2023/11/21 10:40:46;;;;;;;13.03;12.63;;;10.10;99.90;;;;;;4994661;28;20473;-76
2023/11/21 10:43:17;;;;;;;13.83;13.43;;;10.10;1.00;;;;;;4999407;28;20539;-78
2023/11/21 10:45:45;;;;;;;13.60;13.10;;;10.20;99.90;;;;;;4996476;28;20529;-79
2023/11/21 10:48:16;;;;;;;13.13;12.80;;;10.20;1.00;;;;;;5002571;28;20520;-78
2023/11/21 10:50:46;;;;;;;13.80;13.30;;;10.10;1.00;;;;;;5000120;28;20489;-78
2023/11/21 10:53:14;;;;;;;13.50;13.20;;;10.20;99.90;;;;;;4990271;28;20542;-76
2023/11/21 10:55:44;;;;;;;13.87;13.27;;;10.20;56.70;;;;;;5000168;28;20885;-79
2023/11/21 10:58:16;;;;;;;13.70;13.30;;;10.10;99.90;;;;;;4995445;28;20450;-77
2023/11/21 11:00:46;;;;;;;13.57;13.27;;;10.10;90.00;;;;;;4993715;28;20870;-77
2023/11/21 11:03:14;;;;;;;13.80;13.40;;;10.10;40.00;;;;;;4995447;28;20467;-80
2023/11/21 11:05:51;;;;;;;13.90;13.40;;;10.20;99.90;;;;;;4998608;28;20473;-80
2023/11/21 11:08:26;;;;;;;13.80;13.40;;;10.20;80.80;;;;;;4996202;28;20480;-80
2023/11/21 11:10:56;;;;;;;14.57;14.03;;;10.20;99.90;;;;;;4999204;28;20534;-78
2023/11/21 11:13:26;;;;;;;14.30;13.90;;;10.20;99.90;;;;;;4999269;28;20453;-79
2023/11/21 11:16:00;;;;;;;14.53;14.03;;;10.20;1.00;;;;;;4998263;28;20478;-78
2023/11/21 11:18:29;;;;;;;15.10;14.50;;;10.20;27.00;;;;;;4994653;28;20468;-77
2023/11/21 11:21:08;;;;;;;14.60;14.20;;;10.30;99.90;;;;;;4991512;28;20565;-81
2023/11/21 11:23:54;;;;;;;14.93;14.53;;;10.30;90.40;;;;;;4994813;28;20489;-78
2023/11/21 11:26:33;;;;;;;15.77;15.17;;;10.30;73.40;;;;;;4991648;28;20812;-80
2023/11/21 11:29:15;;;;;;;15.43;14.77;;;10.40;99.90;;;;;;4985522;28;20474;-80
2023/11/21 11:31:56;;;;;;;14.83;14.43;;;10.40;99.90;;;;;;4988741;28;20474;-78
2023/11/21 11:34:30;;;;;;;14.30;13.83;;;10.40;99.90;;;;;;4994041;28;20595;-78
2023/11/21 11:37:03;;;;;;;14.53;14.13;;;10.50;69.80;;;;;;5012747;28;21086;-78
2023/11/21 11:39:35;;;;;;;14.53;14.13;;;10.50;99.90;;;;;;5011401;28;20449;-77
2023/11/21 11:42:05;;;;;;;14.20;13.80;;;10.50;99.90;;;;;;5007741;28;20485;-79
2023/11/21 11:44:54;;;;;;;14.00;13.60;;;10.50;5.70;;;;;;5013834;28;20808;-78
2023/11/21 11:47:25;;;;;;;14.70;14.30;;;10.50;99.90;;;;;;5012971;28;20478;-78
2023/11/21 11:50:07;;;;;;;14.73;14.33;;;10.50;99.90;;;;;;5014296;28;20454;-80
2023/11/21 11:52:37;;;;;;;14.50;14.10;;;10.50;99.90;;;;;;5010500;28;20464;-79
2023/11/21 11:55:07;;;;;;;14.70;14.30;;;10.50;99.90;;;;;;5018115;28;20462;-78
2023/11/21 11:57:35;;;;;;;14.40;14.00;;;10.60;99.90;;;;;;5010742;28;20441;-77
2023/11/21 12:00:16;;;;;;;14.70;14.20;;;10.60;99.90;;;;;;5014788;28;21202;-77
2023/11/21 12:02:47;;;;;;;14.50;14.10;;;10.60;99.90;;;;;;5018965;28;20471;-77
2023/11/21 12:05:17;;;;;;;14.67;14.17;;;10.60;99.90;;;;;;5019430;28;20457;-80
2023/11/21 12:07:48;;;;;;;14.80;14.40;;;10.60;99.90;;;;;;5017848;28;20576;-76
2023/11/21 12:10:19;;;;;;;14.63;14.33;;;10.60;99.90;;;;;;5019738;28;20484;-77
2023/11/21 12:12:49;;;;;;;15.00;14.60;;;10.60;99.90;;;;;;5020613;28;20993;-80
2023/11/21 12:15:19;;;;;;;14.70;14.30;;;10.60;99.60;;;;;;5021015;28;20457;-78
2023/11/21 12:17:48;;;;;;;14.67;14.17;;;10.60;99.90;;;;;;5019861;28;20460;-79
2023/11/21 12:20:19;;;;;;;14.10;13.70;;;10.60;99.90;;;;;;5015267;28;20481;-78
2023/11/21 12:22:49;;;;;;;14.53;14.13;;;10.60;99.90;;;;;;5014224;28;20438;-79
2023/11/21 12:25:18;;;;;;;14.10;13.80;;;10.60;1.00;;;;;;5019454;28;20449;-79
2023/11/21 12:27:49;;;;;;;14.07;13.77;;;10.60;71.30;;;;;;5013447;28;20488;-79
2023/11/21 12:30:21;;;;;;;14.10;13.70;;;10.60;99.90;;;;;;5013917;28;20804;-81
2023/11/21 12:32:51;;;;;;;14.97;14.57;;;10.70;99.90;;;;;;5019092;28;20445;-78
2023/11/21 12:35:21;;;;;;;14.57;14.27;;;10.70;99.90;;;;;;5007633;28;21033;-79
2023/11/21 12:37:50;;;;;;;15.23;14.73;;;10.70;99.90;;;;;;5016954;28;20548;-77
2023/11/21 12:40:19;;;;;;;15.30;14.90;;;10.60;99.90;;;;;;5012840;28;20604;-78
2023/11/21 12:42:49;;;;;;;14.60;14.20;;;10.70;99.90;;;;;;5008929;28;20468;-78
2023/11/21 12:45:25;;;;;;;14.43;14.03;;;10.80;99.90;;;;;;5007145;28;20475;-78
2023/11/21 12:47:56;;;;;;;14.83;14.43;;;10.80;99.90;;;;;;5008769;28;20464;-76
2023/11/21 12:50:28;;;;;;;14.73;14.33;;;10.90;99.90;;;;;;5013326;28;20502;-78